Repto America, Puerto Rico
Current Conditions -  °F | °C
As of 12:56 AM on Saturday 22 Nov 2014 (Local Time) from TJSJ Reporting Station
Broken Clouds Broken Clouds  
Wind Chill: 76°   Ceiling: 4000
Heat Index: 76°   Visibility: 10mi
Dew Point: 75°   Wind: 3mph
Humidity: 97%   Direction: 150°SSE
Pressure: 30.02"   Gusts: NA
Location:  18.4125°N, 66.0374°W
Report Text: TJSJ 220456Z 15003KT 10SM SCT025 SCT033 BKN040 24/24 A3002 RMK AO2 RAB18E31 SLP164 VCSH N SE-S P0006 T02440239
Loading
Personal Weather Stations






























Interactive Weather Map New forecast layout! Learn more

10-Day Weather Forecast

Advertisements
Track Severe Weather on mobile